Time;durP1;ratioP1;P1;durP2;ratioP2;P2;SDS_P1;SDS_P2;PMS_P1;PMS_P2;Temp;Humidity;BMP_temperature;BMP_pressure;BME280_temperature;BME280_humidity;BME280_pressure;Samples;Min_cycle;Max_cycle;Signal;HPM_P1;HPM_P2
2021/07/13 00:01:06;;;;;;;7.55;5.45;;;;;;;29.18;42.13;101050.47;144992;600;6002;-82
2021/07/13 00:03:33;;;;;;;6.07;5.45;;;;;;;29.23;42.17;101056.53;144992;575;6002;-82
2021/07/13 00:06:00;;;;;;;6.07;5.45;;;;;;;29.27;41.76;101051.91;144992;572;6002;-82
2021/07/13 00:08:27;;;;;;;6.00;5.32;;;;;;;29.30;42.14;101051.78;144992;591;6002;-82
2021/07/13 00:10:53;;;;;;;6.60;5.53;;;;;;;29.29;39.97;101056.28;144992;598;6002;-82
2021/07/13 00:13:20;;;;;;;5.97;5.37;;;;;;;29.27;41.86;101055.47;144992;564;6002;-82
2021/07/13 00:15:46;;;;;;;6.30;5.70;;;;;;;29.30;41.65;101057.13;144992;652;6002;-81
2021/07/13 00:18:13;;;;;;;7.85;5.15;;;;;;;29.34;41.73;101048.06;144992;636;6002;-81
2021/07/13 00:20:40;;;;;;;6.28;5.68;;;;;;;29.36;41.99;101058.69;144992;590;6002;-82
2021/07/13 00:23:06;;;;;;;5.87;5.28;;;;;;;29.38;41.78;101055.00;144992;612;6002;-83
2021/07/13 00:25:34;;;;;;;6.20;5.60;;;;;;;29.41;41.88;101051.31;144992;586;6002;-81
2021/07/13 00:28:01;;;;;;;8.57;5.30;;;;;;;29.41;40.93;101041.47;144992;569;6002;-82
2021/07/13 00:30:28;;;;;;;6.72;5.32;;;;;;;29.36;41.96;101045.31;144992;626;6002;-81
2021/07/13 00:32:54;;;;;;;7.93;5.30;;;;;;;29.34;41.90;101039.16;144992;595;6002;-82
2021/07/13 00:35:22;;;;;;;7.32;5.72;;;;;;;29.26;42.23;101039.50;144992;563;6002;-82
2021/07/13 00:37:48;;;;;;;7.93;5.65;;;;;;;29.25;43.18;101038.59;144992;574;6003;-81
2021/07/13 00:40:18;;;;;;;7.60;5.60;;;;;;;29.20;42.43;101032.59;144992;582;6002;-81
2021/07/13 00:42:50;;;;;;;6.62;5.97;;;;;;;29.24;42.32;101030.66;144992;569;6002;-83
2021/07/13 00:45:17;;;;;;;7.93;6.07;;;;;;;29.27;42.43;101039.44;144992;571;6002;-82
2021/07/13 00:47:48;;;;;;;9.10;6.20;;;;;;;29.29;42.91;101034.03;144992;573;6002;-83
2021/07/13 00:50:16;;;;;;;7.82;5.82;;;;;;;29.25;42.31;101037.75;144992;579;6002;-81
2021/07/13 00:52:43;;;;;;;7.40;5.40;;;;;;;29.12;42.75;101040.06;144992;585;6002;-82
2021/07/13 00:55:12;;;;;;;8.25;5.85;;;;;;;29.09;42.31;101035.69;144992;564;6002;-82
2021/07/13 00:57:39;;;;;;;6.18;5.60;;;;;;;29.04;42.94;101034.16;144992;569;6002;-82
2021/07/13 01:00:09;;;;;;;7.22;5.70;;;;;;;29.03;42.32;101027.97;144992;646;6002;-82
2021/07/13 01:02:35;;;;;;;7.32;5.55;;;;;;;28.98;42.63;101034.44;144992;581;6002;-82
2021/07/13 01:05:06;;;;;;;8.55;5.57;;;;;;;28.95;42.80;101038.09;144992;594;6002;-82
2021/07/13 01:08:27;;;;;;;6.75;5.65;;;;;;;29.00;42.29;101037.91;144992;670;6002;-82
2021/07/13 01:11:07;;;;;;;6.87;5.30;;;;;;;29.03;42.27;101035.09;144992;569;6004;-83
2021/07/13 01:14:10;;;;;;;6.18;5.60;;;;;;;29.07;42.19;101042.06;144992;567;6004;-83
2021/07/13 01:17:14;;;;;;;8.55;5.65;;;;;;;29.11;41.94;101043.66;144992;594;6002;-83
2021/07/13 01:20:24;;;;;;;6.40;5.80;;;;;;;29.15;41.69;101047.09;144992;696;6004;-82
2021/07/13 01:23:02;;;;;;;8.43;5.80;;;;;;;29.18;41.60;101042.47;144992;578;6004;-81
2021/07/13 01:26:10;;;;;;;6.70;6.10;;;;;;;29.23;41.42;101045.84;144992;646;6004;-83
2021/07/13 01:28:42;;;;;;;7.62;5.43;;;;;;;29.22;41.84;101046.75;144992;597;6004;-82
2021/07/13 01:31:14;;;;;;;7.32;6.18;;;;;;;29.24;41.72;101044.03;144992;661;6004;-81
2021/07/13 01:33:49;;;;;;;9.25;6.45;;;;;;;29.25;41.57;101045.78;144992;598;6006;-81
2021/07/13 01:36:30;;;;;;;8.27;6.03;;;;;;;29.23;41.31;101040.50;144992;593;6013;-82
2021/07/13 01:38:59;;;;;;;6.68;5.97;;;;;;;29.18;41.07;101038.94;144992;608;6004;-83
2021/07/13 01:41:27;;;;;;;9.35;6.10;;;;;;;29.15;41.28;101042.59;144992;686;6004;-82
2021/07/13 01:43:56;;;;;;;6.78;5.62;;;;;;;29.15;40.96;101042.59;144992;583;6004;-82
2021/07/13 01:46:23;;;;;;;7.25;6.10;;;;;;;29.16;41.22;101041.69;144992;562;6004;-82
2021/07/13 01:48:52;;;;;;;7.03;5.93;;;;;;;29.14;41.41;101038.19;144992;661;6004;-83
2021/07/13 01:51:21;;;;;;;9.85;5.53;;;;;;;29.09;41.57;101040.19;144992;567;6004;-82
2021/07/13 01:53:48;;;;;;;8.05;6.53;;;;;;;29.10;42.00;101044.59;144992;582;6004;-82
2021/07/13 01:56:17;;;;;;;8.00;6.25;;;;;;;29.12;42.59;101045.41;144992;568;6004;-82
2021/07/13 01:58:44;;;;;;;7.62;6.35;;;;;;;29.12;42.32;101050.75;144992;610;6004;-84
2021/07/13 02:01:20;;;;;;;7.45;6.45;;;;;;;29.11;43.08;101049.88;144992;603;6004;-81
2021/07/13 02:03:50;;;;;;;8.60;6.62;;;;;;;29.13;43.07;101044.47;144992;583;6004;-83
2021/07/13 02:06:21;;;;;;;7.22;6.05;;;;;;;29.10;44.38;101047.28;144992;660;6004;-81
2021/07/13 02:08:51;;;;;;;9.43;6.43;;;;;;;29.07;43.83;101050.06;144992;564;6004;-82
2021/07/13 02:11:18;;;;;;;7.18;6.25;;;;;;;29.02;43.41;101046.75;144992;639;6004;-82
2021/07/13 02:13:45;;;;;;;8.93;6.32;;;;;;;29.01;43.56;101042.31;144992;568;6004;-82
2021/07/13 02:16:12;;;;;;;8.35;6.50;;;;;;;28.98;44.98;101053.13;144992;591;6004;-82
2021/07/13 02:18:39;;;;;;;11.85;6.93;;;;;;;28.89;44.49;101047.25;144992;603;6004;-82
2021/07/13 02:21:09;;;;;;;11.10;7.37;;;;;;;28.86;44.37;101047.37;144993;750;6000;-83
2021/07/13 02:23:37;;;;;;;13.48;7.62;;;;;;;28.86;44.49;101044.69;144993;701;6002;-81
2021/07/13 02:26:05;;;;;;;12.68;7.10;;;;;;;28.84;44.37;101051.03;144993;682;6002;-82
2021/07/13 02:28:38;;;;;;;9.88;6.80;;;;;;;28.75;44.78;101042.47;144993;589;6002;-83
2021/07/13 02:31:15;;;;;;;10.00;7.05;;;;;;;28.67;44.88;101043.72;144993;648;6002;-82
2021/07/13 02:33:57;;;;;;;10.05;6.70;;;;;;;28.57;44.73;101040.50;144993;563;6002;-81
2021/07/13 02:36:30;;;;;;;8.70;6.78;;;;;;;28.53;44.89;101045.09;144993;590;6002;-81
2021/07/13 02:38:58;;;;;;;14.95;7.03;;;;;;;28.58;44.86;101042.28;144993;629;6002;-81
2021/07/13 02:41:27;;;;;;;8.15;6.47;;;;;;;28.62;44.73;101041.25;144993;650;6002;-82
2021/07/13 02:43:57;;;;;;;14.13;6.47;;;;;;;28.68;44.62;101049.00;144993;600;6002;-82
2021/07/13 02:46:26;;;;;;;8.52;7.22;;;;;;;28.64;44.51;101047.37;144993;589;6002;-82
2021/07/13 02:48:53;;;;;;;8.93;6.65;;;;;;;28.57;44.14;101043.19;144993;569;6002;-82
2021/07/13 02:51:20;;;;;;;10.80;6.47;;;;;;;28.56;44.69;101044.13;144993;581;6002;-83
2021/07/13 02:53:48;;;;;;;8.45;6.28;;;;;;;28.63;44.64;101047.44;144992;580;6002;-82
2021/07/13 02:56:17;;;;;;;8.38;6.60;;;;;;;28.69;44.43;101052.53;144992;623;6002;-82
2021/07/13 02:58:44;;;;;;;9.65;7.10;;;;;;;28.66;43.07;101048.19;144992;579;6002;-82
2021/07/13 03:01:12;;;;;;;10.55;6.57;;;;;;;28.67;43.95;101052.59;144992;610;6002;-83
2021/07/13 03:03:41;;;;;;;15.63;6.93;;;;;;;28.72;43.71;101057.75;144992;583;6002;-82
2021/07/13 03:06:08;;;;;;;13.88;6.57;;;;;;;28.74;43.71;101066.56;144992;614;6002;-82
2021/07/13 03:08:35;;;;;;;11.25;6.05;;;;;;;28.74;43.95;101066.56;144993;700;6002;-82
2021/07/13 03:11:03;;;;;;;8.98;6.68;;;;;;;28.75;43.77;101061.16;144993;590;6002;-82
2021/07/13 03:13:32;;;;;;;12.57;6.75;;;;;;;28.70;43.92;101059.63;144993;572;6002;-83
2021/07/13 03:15:58;;;;;;;7.43;5.78;;;;;;;28.72;43.74;101057.75;144992;595;6002;-83
2021/07/13 03:18:25;;;;;;;9.25;6.32;;;;;;;28.74;43.54;101054.06;144993;659;6002;-81
2021/07/13 03:20:56;;;;;;;8.63;6.50;;;;;;;28.76;43.42;101062.03;144993;675;6002;-82
2021/07/13 03:23:24;;;;;;;7.72;6.30;;;;;;;28.74;43.58;101067.44;144993;623;6002;-82
2021/07/13 03:25:51;;;;;;;7.97;6.18;;;;;;;28.74;42.94;101061.22;144993;674;6002;-83
2021/07/13 03:28:19;;;;;;;9.07;5.82;;;;;;;28.76;43.03;101059.34;144993;598;6002;-82
2021/07/13 03:30:46;;;;;;;7.78;5.55;;;;;;;28.66;42.45;101060.69;144993;579;6002;-82
2021/07/13 03:33:14;;;;;;;8.73;6.15;;;;;;;28.65;43.02;101066.94;144993;574;6002;-83
2021/07/13 03:35:41;;;;;;;9.15;5.75;;;;;;;28.66;42.62;101061.53;144993;657;6002;-84
2021/07/13 03:38:08;;;;;;;7.68;5.82;;;;;;;28.67;42.55;101065.09;144993;594;6002;-82
2021/07/13 03:40:35;;;;;;;14.90;6.05;;;;;;;28.60;42.70;101069.78;144993;564;6002;-83
2021/07/13 03:43:02;;;;;;;7.43;6.05;;;;;;;28.54;41.15;101053.97;144992;569;6002;-82
2021/07/13 03:45:29;;;;;;;6.50;5.57;;;;;;;28.52;42.47;101059.41;144993;572;6002;-82
2021/07/13 03:47:58;;;;;;;7.85;5.68;;;;;;;28.51;42.41;101059.47;144993;577;6002;-84
2021/07/13 03:50:28;;;;;;;21.25;6.35;;;;;;;28.50;42.22;101063.91;144993;599;6002;-82
2021/07/13 03:52:54;;;;;;;7.60;5.35;;;;;;;28.48;42.51;101067.59;144993;598;6002;-82
2021/07/13 03:55:21;;;;;;;7.12;6.10;;;;;;;28.47;42.26;101065.84;144993;588;6002;-81
2021/07/13 03:57:48;;;;;;;8.70;5.82;;;;;;;28.42;42.20;101061.53;144993;597;6002;-83
2021/07/13 04:00:18;;;;;;;6.68;5.97;;;;;;;28.46;42.16;101067.66;144993;606;6002;-82
2021/07/13 04:02:45;;;;;;;7.78;6.70;;;;;;;28.49;41.80;101066.66;144994;685;5002;-82
2021/07/13 04:05:13;;;;;;;8.95;6.07;;;;;;;28.51;41.89;101059.47;144994;628;5002;-81
2021/07/13 04:07:40;;;;;;;9.45;5.85;;;;;;;28.53;41.61;101066.47;144994;595;5002;-81
2021/07/13 04:10:12;;;;;;;9.52;6.53;;;;;;;28.59;41.51;101070.75;144994;565;5002;-83
2021/07/13 04:12:42;;;;;;;12.23;6.03;;;;;;;28.64;40.97;101075.91;144994;617;5002;-82
2021/07/13 04:15:12;;;;;;;9.60;5.68;;;;;;;28.66;40.93;101071.34;144994;748;5002;-84
2021/07/13 04:17:39;;;;;;;11.30;6.37;;;;;;;28.70;41.19;101078.34;144994;575;5002;-84
2021/07/13 04:20:08;;;;;;;10.35;6.55;;;;;;;28.74;40.76;101071.91;144994;719;5002;-85
2021/07/13 04:22:35;;;;;;;7.50;6.30;;;;;;;28.75;41.07;101079.88;144994;569;5002;-84
2021/07/13 04:25:03;;;;;;;9.02;6.97;;;;;;;28.73;41.44;101081.75;144994;585;5002;-82
2021/07/13 04:27:30;;;;;;;9.20;6.85;;;;;;;28.77;41.08;101082.47;144994;599;5002;-81
2021/07/13 04:29:56;;;;;;;9.68;6.60;;;;;;;28.82;41.12;101084.97;144994;592;5002;-81
2021/07/13 04:32:23;;;;;;;8.27;7.25;;;;;;;28.84;41.18;101086.66;144994;582;5002;-81
2021/07/13 04:34:49;;;;;;;11.00;7.00;;;;;;;28.88;41.05;101084.72;144994;636;5002;-81
2021/07/13 04:37:15;;;;;;;7.78;6.50;;;;;;;28.90;41.16;101089.03;144994;587;5002;-82
2021/07/13 04:39:42;;;;;;;10.30;6.28;;;;;;;28.93;40.78;101080.03;144994;608;5002;-83
2021/07/13 04:42:09;;;;;;;10.82;5.95;;;;;;;28.95;40.87;101087.06;144994;689;5002;-83
2021/07/13 04:44:35;;;;;;;8.18;6.07;;;;;;;29.00;41.28;101084.22;144994;566;5002;-82
2021/07/13 04:47:02;;;;;;;7.90;6.35;;;;;;;29.03;40.90;101081.41;144994;594;5002;-82
2021/07/13 04:49:31;;;;;;;8.68;6.37;;;;;;;29.09;40.85;101096.31;144994;579;5002;-81
2021/07/13 04:52:04;;;;;;;9.30;6.60;;;;;;;29.16;40.88;101087.13;144994;575;5002;-83
2021/07/13 04:54:33;;;;;;;9.10;6.40;;;;;;;29.24;40.48;101101.06;144994;692;5002;-81
2021/07/13 04:57:02;;;;;;;10.05;7.07;;;;;;;29.25;40.59;101100.09;144994;572;5002;-82
2021/07/13 04:59:29;;;;;;;14.48;7.32;;;;;;;29.32;40.79;101106.06;144994;564;5002;-83
2021/07/13 05:01:56;;;;;;;8.07;6.95;;;;;;;29.39;40.52;101104.87;144994;569;5002;-86
2021/07/13 05:04:23;;;;;;;11.40;7.72;;;;;;;29.43;40.52;101109.16;144994;665;5002;-82
2021/07/13 05:06:50;;;;;;;11.85;6.78;;;;;;;29.46;41.27;101110.81;144994;573;5002;-82
2021/07/13 05:09:17;;;;;;;11.85;6.82;;;;;;;29.35;43.57;101111.28;144994;587;5002;-84
2021/07/13 05:11:45;;;;;;;11.25;6.60;;;;;;;29.29;45.35;101115.09;144994;598;5002;-80
2021/07/13 05:14:12;;;;;;;9.38;6.20;;;;;;;29.35;43.08;101111.28;144994;750;5002;-83
2021/07/13 05:16:38;;;;;;;8.75;6.28;;;;;;;29.22;43.38;101110.06;144994;649;5002;-82
2021/07/13 05:19:07;;;;;;;9.45;6.43;;;;;;;29.20;45.38;101111.94;144994;625;5002;-81
2021/07/13 05:21:33;;;;;;;7.10;5.87;;;;;;;29.26;44.85;101117.03;144994;572;5002;-83
2021/07/13 05:23:59;;;;;;;8.32;6.93;;;;;;;29.20;44.93;101112.78;144994;575;5002;-83
2021/07/13 05:26:28;;;;;;;9.82;6.12;;;;;;;29.09;45.79;101107.00;144994;564;5002;-82
2021/07/13 05:28:55;;;;;;;11.07;6.55;;;;;;;29.06;47.03;101116.00;144994;607;5002;-82
2021/07/13 05:31:22;;;;;;;8.48;6.25;;;;;;;29.11;46.13;101107.78;144993;645;5002;-83
2021/07/13 05:33:51;;;;;;;7.40;6.43;;;;;;;29.11;49.14;101107.78;144994;570;5002;-83
2021/07/13 05:36:17;;;;;;;10.75;6.60;;;;;;;29.16;48.31;101119.19;144994;607;5002;-82
2021/07/13 05:38:44;;;;;;;7.95;6.53;;;;;;;29.13;50.66;101116.62;144993;595;5002;-82
2021/07/13 05:41:10;;;;;;;8.82;6.40;;;;;;;29.16;47.29;101119.19;144994;566;5006;-83
2021/07/13 05:43:38;;;;;;;9.90;7.32;;;;;;;29.30;47.30;101127.53;144994;576;5002;-83
2021/07/13 05:46:06;;;;;;;15.15;7.45;;;;;;;29.26;47.57;101123.22;144994;596;5002;-82
2021/07/13 05:48:33;;;;;;;12.68;7.45;;;;;;;29.29;47.26;101130.25;144994;656;5002;-82
2021/07/13 05:50:59;;;;;;;9.20;7.60;;;;;;;29.41;47.17;101135.06;144994;593;5002;-82
2021/07/13 05:53:26;;;;;;;9.02;8.00;;;;;;;29.45;47.23;101128.66;144994;580;5002;-82
2021/07/13 05:55:52;;;;;;;9.95;7.93;;;;;;;29.48;47.15;101133.03;144993;566;5002;-81
2021/07/13 05:58:22;;;;;;;13.52;8.90;;;;;;;29.54;46.19;101130.09;144994;602;5002;-82
2021/07/13 06:00:49;;;;;;;10.43;8.57;;;;;;;29.61;46.47;101134.22;144994;564;5002;-83
2021/07/13 06:03:17;;;;;;;11.82;9.07;;;;;;;29.66;45.04;101139.38;144994;574;5002;-82
2021/07/13 06:05:44;;;;;;;11.85;9.13;;;;;;;29.73;45.21;101138.16;144994;577;5002;-82
2021/07/13 06:08:10;;;;;;;11.25;8.50;;;;;;;29.81;45.16;101137.84;144994;569;5002;-84
2021/07/13 06:10:37;;;;;;;12.10;9.70;;;;;;;29.87;44.70;101142.06;144994;570;5002;-83
2021/07/13 06:13:03;;;;;;;14.43;9.73;;;;;;;29.81;44.66;101145.87;144994;566;5002;-82
2021/07/13 06:15:30;;;;;;;13.93;9.30;;;;;;;29.92;44.59;101146.28;144994;586;5002;-82
2021/07/13 06:17:56;;;;;;;10.25;9.02;;;;;;;30.06;44.62;101142.13;144994;596;5002;-81
2021/07/13 06:20:23;;;;;;;14.98;9.95;;;;;;;30.18;44.34;101138.91;144994;581;5003;-82
2021/07/13 06:22:49;;;;;;;18.62;10.65;;;;;;;30.25;44.27;101137.66;144994;566;5002;-81
2021/07/13 06:25:16;;;;;;;13.60;10.55;;;;;;;30.25;43.74;101134.12;144994;585;5002;-82
2021/07/13 06:27:43;;;;;;;12.63;10.27;;;;;;;30.15;44.12;101133.69;144994;582;5002;-81
2021/07/13 06:30:12;;;;;;;13.73;10.10;;;;;;;30.13;44.43;101139.09;144994;589;5002;-81
2021/07/13 06:32:40;;;;;;;14.27;10.20;;;;;;;30.23;43.90;101139.53;144994;587;5002;-83
2021/07/13 06:35:07;;;;;;;10.13;8.60;;;;;;;30.29;44.18;101136.59;144994;573;5002;-83
2021/07/13 06:37:36;;;;;;;14.70;10.70;;;;;;;30.38;44.13;101138.87;144994;576;5002;-82
2021/07/13 06:40:04;;;;;;;12.68;9.27;;;;;;;30.49;43.81;101129.44;144994;616;5002;-81
2021/07/13 06:42:31;;;;;;;19.12;8.95;;;;;;;30.59;43.31;101128.06;144994;569;5002;-83
2021/07/13 06:44:57;;;;;;;13.80;9.98;;;;;;;30.66;43.08;101132.19;144994;604;5002;-82
2021/07/13 06:47:26;;;;;;;14.75;9.18;;;;;;;30.70;42.11;101133.81;144994;611;5002;-83
2021/07/13 06:49:52;;;;;;;16.45;12.13;;;;;;;30.66;43.13;101123.31;144994;585;5002;-83
2021/07/13 06:52:18;;;;;;;12.82;9.50;;;;;;;30.71;40.76;101126.62;144994;594;5002;-83
2021/07/13 06:54:45;;;;;;;13.77;8.98;;;;;;;30.72;43.03;101129.22;144994;565;5002;-83
2021/07/13 06:57:11;;;;;;;14.07;9.38;;;;;;;30.66;42.56;101126.84;144994;569;5002;-82
2021/07/13 06:59:38;;;;;;;9.45;8.45;;;;;;;30.75;42.61;101123.72;144994;571;5002;-83
2021/07/13 07:02:04;;;;;;;12.35;9.05;;;;;;;30.74;41.09;101121.13;144994;580;5002;-82
2021/07/13 07:04:31;;;;;;;14.07;9.30;;;;;;;30.82;42.53;101115.37;144994;575;5002;-82
2021/07/13 07:06:57;;;;;;;14.87;9.38;;;;;;;30.96;42.54;101117.34;144994;605;5002;-82
2021/07/13 07:09:24;;;;;;;12.88;9.07;;;;;;;31.04;41.87;101109.88;144994;619;5002;-82
2021/07/13 07:11:50;;;;;;;10.52;8.63;;;;;;;31.05;41.76;101112.47;144994;585;5002;-82
2021/07/13 07:14:19;;;;;;;14.55;8.82;;;;;;;30.98;41.47;101108.34;144994;589;5002;-83
2021/07/13 07:16:45;;;;;;;8.63;7.72;;;;;;;31.14;42.12;101100.41;144994;587;5002;-82
2021/07/13 07:19:12;;;;;;;14.13;8.45;;;;;;;31.27;41.89;101103.31;144994;563;5002;-83
2021/07/13 07:21:38;;;;;;;9.07;7.60;;;;;;;31.35;41.67;101101.09;144994;625;5002;-82
2021/07/13 07:24:09;;;;;;;11.93;8.20;;;;;;;31.44;40.34;101100.63;144994;563;5002;-82
2021/07/13 07:26:36;;;;;;;10.40;7.97;;;;;;;31.48;40.17;101090.59;144994;591;5002;-82
2021/07/13 07:29:02;;;;;;;11.68;7.97;;;;;;;31.21;40.55;101093.78;144994;600;5002;-83
2021/07/13 07:31:29;;;;;;;10.00;8.20;;;;;;;31.16;39.45;101081.56;144994;642;5002;-82
2021/07/13 07:33:58;;;;;;;11.18;8.00;;;;;;;31.13;40.93;101087.06;144994;565;5002;-84
2021/07/13 07:36:26;;;;;;;16.17;8.20;;;;;;;31.11;38.01;101076.41;144994;627;5002;-83
2021/07/13 07:38:54;;;;;;;11.50;7.50;;;;;;;31.21;39.66;101090.22;144994;570;5002;-83
2021/07/13 07:41:21;;;;;;;6.82;6.15;;;;;;;31.35;39.67;101081.47;144994;599;5002;-83
2021/07/13 07:43:48;;;;;;;5.68;5.18;;;;;;;31.43;39.01;101081.94;144994;587;5002;-83
2021/07/13 07:46:15;;;;;;;6.85;6.15;;;;;;;31.59;38.67;101084.72;144994;586;5002;-82
2021/07/13 07:48:41;;;;;;;9.07;6.57;;;;;;;31.64;38.22;101075.50;144993;573;5002;-81
2021/07/13 07:51:08;;;;;;;9.68;6.47;;;;;;;31.81;38.04;101079.94;144994;586;5002;-83
2021/07/13 07:53:36;;;;;;;7.50;6.57;;;;;;;31.90;37.51;101088.47;144993;567;5002;-81
2021/07/13 07:56:03;;;;;;;8.07;6.80;;;;;;;31.99;37.87;101077.19;144993;628;5002;-82
2021/07/13 07:58:31;;;;;;;8.82;6.28;;;;;;;32.05;37.72;101084.06;144994;709;5002;-83
2021/07/13 08:00:58;;;;;;;6.10;5.50;;;;;;;32.14;36.91;101073.72;144994;676;5002;-82
2021/07/13 08:03:25;;;;;;;6.57;5.90;;;;;;;32.08;33.66;101074.06;144994;685;5002;-82
2021/07/13 08:05:55;;;;;;;8.40;5.57;;;;;;;32.11;35.38;101076.56;144994;661;5002;-82
2021/07/13 08:08:22;;;;;;;8.77;6.18;;;;;;;32.04;34.24;101071.59;144994;594;5002;-82
2021/07/13 08:10:49;;;;;;;11.85;7.22;;;;;;;32.14;36.53;101075.53;144994;619;5002;-82
2021/07/13 08:13:16;;;;;;;8.50;6.87;;;;;;;32.11;38.02;101078.41;144994;569;5002;-81
2021/07/13 08:15:42;;;;;;;11.23;7.10;;;;;;;31.86;39.51;101070.78;144994;597;5002;-82
2021/07/13 08:18:09;;;;;;;9.68;7.53;;;;;;;31.79;39.41;101063.06;144994;575;5002;-83
2021/07/13 08:20:35;;;;;;;9.10;6.55;;;;;;;31.88;38.72;101071.56;144994;564;5002;-81
2021/07/13 08:23:02;;;;;;;13.65;6.82;;;;;;;31.80;40.01;101067.47;144994;715;5002;-81
2021/07/13 08:25:28;;;;;;;10.73;7.35;;;;;;;31.81;41.88;101073.72;144994;718;5002;-82
2021/07/13 08:27:55;;;;;;;13.15;7.12;;;;;;;32.05;40.41;101076.88;144994;660;5002;-82
2021/07/13 08:30:22;;;;;;;11.50;5.78;;;;;;;31.93;39.63;101069.50;144994;683;5002;-81
2021/07/13 08:32:48;;;;;;;8.45;5.93;;;;;;;31.99;38.64;101074.50;144994;611;4566;-82
2021/07/13 08:35:15;;;;;;;8.15;6.40;;;;;;;31.85;39.29;101067.25;144994;621;4567;-82
2021/07/13 08:37:42;;;;;;;8.15;5.90;;;;;;;32.01;38.98;101073.50;144994;569;4572;-82
2021/07/13 08:40:10;;;;;;;9.63;6.82;;;;;;;31.77;40.51;101075.69;144991;677;6002;-81
2021/07/13 08:42:42;;;;;;;7.78;6.97;;;;;;;31.80;40.61;101069.28;144992;637;6002;-81
2021/07/13 08:45:10;;;;;;;10.15;5.90;;;;;;;31.87;39.56;101073.38;144992;632;6002;-82
2021/07/13 08:47:39;;;;;;;8.05;6.15;;;;;;;31.97;39.10;101063.87;144992;721;6002;-83
2021/07/13 08:50:07;;;;;;;5.78;5.18;;;;;;;31.95;38.66;101064.91;144992;693;6002;-82
2021/07/13 08:52:34;;;;;;;9.15;7.37;;;;;;;32.03;39.49;101069.88;144992;585;6002;-82
2021/07/13 08:55:03;;;;;;;7.57;6.80;;;;;;;31.92;38.72;101065.09;144992;620;6002;-81
2021/07/13 08:57:29;;;;;;;6.47;5.15;;;;;;;31.95;39.49;101063.09;144992;570;6002;-82
2021/07/13 08:59:56;;;;;;;7.00;6.30;;;;;;;31.95;35.53;101060.41;144992;648;6002;-82
2021/07/13 09:02:22;;;;;;;7.28;6.03;;;;;;;32.05;37.69;101058.06;144992;684;6002;-81
2021/07/13 09:04:52;;;;;;;9.35;5.85;;;;;;;32.14;34.78;101054.06;144992;605;6002;-82
2021/07/13 09:07:19;;;;;;;6.90;6.28;;;;;;;32.11;33.96;101065.81;144992;565;6002;-80
2021/07/13 09:09:48;;;;;;;7.80;6.05;;;;;;;32.05;35.84;101058.06;144992;593;6002;-82
2021/07/13 09:12:23;;;;;;;6.93;5.50;;;;;;;32.18;35.67;101063.66;144992;570;6002;-82
2021/07/13 09:15:00;;;;;;;6.60;5.32;;;;;;;32.24;34.75;101057.09;144992;585;6002;-82
2021/07/13 09:17:41;;;;;;;7.10;5.70;;;;;;;32.24;34.47;101054.41;144992;598;6002;-81
2021/07/13 09:20:24;;;;;;;7.93;7.15;;;;;;;32.08;34.66;101057.94;144992;573;6002;-82
2021/07/13 09:23:06;;;;;;;7.07;5.93;;;;;;;32.27;34.46;101055.09;144992;652;6002;-83
2021/07/13 09:25:37;;;;;;;8.57;6.03;;;;;;;32.21;34.04;101060.81;144992;570;6002;-82
2021/07/13 09:28:18;;;;;;;6.43;5.40;;;;;;;32.20;33.88;101061.78;144992;647;6002;-81
2021/07/13 09:30:53;;;;;;;6.50;5.22;;;;;;;32.17;32.52;101073.53;144992;716;6002;-82
2021/07/13 09:33:27;;;;;;;5.95;5.37;;;;;;;32.11;32.69;101060.47;144992;587;6002;-81
2021/07/13 09:36:14;;;;;;;;;;;;;;;32.01;32.35;101059.22;144997;913;6002;-83
2021/07/13 09:38:53;;;;;;;7.72;5.80;;;;;;;32.03;33.52;101054.63;144997;589;6002;-84
2021/07/13 09:41:22;;;;;;;6.20;4.97;;;;;;;32.29;31.65;101057.69;144992;652;6002;-83
2021/07/13 09:44:04;;;;;;;6.70;5.25;;;;;;;32.25;31.58;101064.22;144992;589;6002;-83
2021/07/13 09:46:44;;;;;;;5.47;4.97;;;;;;;32.10;31.69;101064.13;144992;563;6002;-81
2021/07/13 09:49:39;;;;;;;8.68;5.97;;;;;;;31.98;32.16;101060.25;144992;579;6002;-81
2021/07/13 09:52:06;;;;;;;8.38;5.82;;;;;;;31.89;33.33;101065.25;144992;589;6004;-81
2021/07/13 09:54:40;;;;;;;9.77;6.43;;;;;;;31.92;35.31;101067.78;144992;609;6004;-82
2021/07/13 09:57:15;;;;;;;7.30;6.45;;;;;;;31.92;36.07;101054.34;144992;585;6004;-82
2021/07/13 09:59:47;;;;;;;8.10;6.10;;;;;;;31.97;37.00;101055.81;144992;589;6004;-82
2021/07/13 10:02:18;;;;;;;8.45;6.00;;;;;;;31.98;35.45;101059.38;144992;567;6004;-82
2021/07/13 10:04:46;;;;;;;6.82;5.78;;;;;;;31.86;36.13;101052.84;144992;678;6004;-81
2021/07/13 10:07:15;;;;;;;9.35;6.03;;;;;;;31.93;35.64;101053.41;144992;669;6004;-82
2021/07/13 10:09:53;;;;;;;11.70;6.22;;;;;;;31.88;35.58;101052.75;144992;567;6004;-80
2021/07/13 10:12:22;;;;;;;7.57;6.28;;;;;;;32.05;35.24;101060.75;144992;601;6004;-83
2021/07/13 10:14:56;;;;;;;7.90;6.03;;;;;;;32.19;35.60;101043.91;144992;579;6004;-83
2021/07/13 10:17:32;;;;;;;8.80;6.35;;;;;;;32.03;36.75;101054.63;144992;621;6004;-82
2021/07/13 10:20:08;;;;;;;8.20;6.05;;;;;;;32.09;36.45;101056.16;144992;568;6004;-81
2021/07/13 10:22:40;;;;;;;9.05;6.25;;;;;;;32.14;35.84;101049.56;144992;650;6004;-82
2021/07/13 10:25:07;;;;;;;6.62;5.78;;;;;;;32.24;35.82;101046.34;144992;683;6004;-81
2021/07/13 10:27:42;;;;;;;7.72;5.62;;;;;;;32.16;36.41;101044.94;144992;678;6004;-84
2021/07/13 10:30:39;;;;;;;7.20;5.50;;;;;;;32.22;36.52;101042.91;144992;644;6004;-82
2021/07/13 10:33:27;;;;;;;10.10;5.97;;;;;;;32.38;36.28;101042.91;144992;596;6002;-82
2021/07/13 10:35:55;;;;;;;7.87;6.40;;;;;;;32.53;36.34;101039.31;144992;601;6004;-82
2021/07/13 10:38:23;;;;;;;6.70;5.85;;;;;;;32.38;37.16;101040.22;144992;593;6004;-81
2021/07/13 10:40:56;;;;;;;7.15;6.00;;;;;;;32.40;37.35;101032.91;144992;587;6004;-81
2021/07/13 10:43:24;;;;;;;6.75;6.00;;;;;;;32.26;38.80;101028.31;144992;580;6004;-81
2021/07/13 10:46:13;;;;;;;8.50;6.65;;;;;;;32.33;38.49;101030.59;144992;588;6004;-82
2021/07/13 10:48:40;;;;;;;6.80;6.20;;;;;;;32.31;39.96;101021.75;144992;668;6004;-82
2021/07/13 10:51:09;;;;;;;8.00;6.65;;;;;;;32.45;38.59;101020.09;144992;694;6004;-83
2021/07/13 10:53:40;;;;;;;9.43;6.20;;;;;;;32.57;38.60;101026.59;144992;588;6004;-83
2021/07/13 10:56:30;;;;;;;11.70;8.73;;;;;;;32.49;40.05;101027.88;144992;572;6004;-83
2021/07/13 10:58:57;;;;;;;10.45;6.50;;;;;;;32.54;40.66;101030.31;144992;593;6004;-83
2021/07/13 11:01:27;;;;;;;6.87;6.20;;;;;;;32.66;40.56;101021.56;144992;658;6004;-81
2021/07/13 11:03:56;;;;;;;8.43;6.40;;;;;;;32.57;41.40;101026.59;144992;564;6004;-82
2021/07/13 11:06:39;;;;;;;9.77;6.05;;;;;;;32.50;43.37;101023.37;144992;591;6004;-83
2021/07/13 11:09:19;;;;;;;10.70;6.57;;;;;;;32.41;43.92;101024.78;144992;652;6004;-81
2021/07/13 11:11:46;;;;;;;8.95;6.70;;;;;;;32.36;44.94;101026.87;144992;624;6004;-82
2021/07/13 11:14:14;;;;;;;9.68;6.70;;;;;;;32.21;45.28;101008.94;144992;735;6004;-82
2021/07/13 11:16:42;;;;;;;8.30;6.62;;;;;;;32.14;45.52;101017.31;144992;588;6004;-82
2021/07/13 11:19:15;;;;;;;10.07;6.47;;;;;;;32.21;44.68;101003.56;144992;674;6004;-82
2021/07/13 11:21:47;;;;;;;9.47;6.27;;;;;;;32.16;44.28;100993.06;144992;632;6004;-82
2021/07/13 11:24:17;;;;;;;12.75;6.30;;;;;;;32.21;44.50;100999.03;144992;558;6004;-81
2021/07/13 11:26:47;;;;;;;8.32;6.12;;;;;;;32.23;44.69;101001.62;144992;567;6004;-82
2021/07/13 11:29:27;;;;;;;9.60;6.22;;;;;;;32.30;44.88;101001.22;144992;714;6004;-82
2021/07/13 11:32:04;;;;;;;7.57;5.97;;;;;;;32.16;46.88;100996.63;144992;573;6004;-82
2021/07/13 11:34:40;;;;;;;8.90;6.07;;;;;;;32.08;47.64;100985.44;144992;734;6004;-84
2021/07/13 11:37:08;;;;;;;7.82;6.10;;;;;;;32.24;47.95;100990.81;144992;593;6004;-82
2021/07/13 11:39:38;;;;;;;7.30;6.60;;;;;;;32.41;47.50;100979.09;144992;619;6004;-88
2021/07/13 11:42:10;;;;;;;6.93;6.15;;;;;;;33.94;44.32;100989.59;144992;655;6004;-83
2021/07/13 11:44:43;;;;;;;7.32;6.28;;;;;;;35.74;40.85;100981.91;144992;663;6004;-82